Time;durP1;ratioP1;P1;durP2;ratioP2;P2;SDS_P1;SDS_P2;PMS_P1;PMS_P2;Temp;Humidity;BMP_temperature;BMP_pressure;BME280_temperature;BME280_humidity;BME280_pressure;Samples;Min_cycle;Max_cycle;Signal;HPM_P1;HPM_P2
2023/10/07 00:01:49;;;;;;;7.68;3.67;;;;;;;;;;5033714;28;20515;-58
2023/10/07 00:04:14;;;;;;;10.20;7.82;;;;;;;;;;5034104;28;20040;-60
2023/10/07 00:06:39;;;;;;;5.73;2.93;;;;;;;;;;5033925;28;20473;-59
2023/10/07 00:09:10;;;;;;;5.77;2.67;;;;;;;;;;5033615;28;20028;-59
2023/10/07 00:11:35;;;;;;;7.13;3.30;;;;;;;;;;5034547;28;20500;-60
2023/10/07 00:14:02;;;;;;;7.20;3.60;;;;;;;;;;5035144;28;20013;-59
2023/10/07 00:16:28;;;;;;;7.45;2.88;;;;;;;;;;5034447;28;20021;-58
2023/10/07 00:18:54;;;;;;;8.10;3.80;;;;;;;;;;5034653;28;20060;-59
2023/10/07 00:21:27;;;;;;;7.15;3.92;;;;;;;;;;5034443;28;20035;-59
2023/10/07 00:23:53;;;;;;;8.88;4.72;;;;;;;;;;5034006;28;20456;-58
2023/10/07 00:26:18;;;;;;;6.85;3.45;;;;;;;;;;5033423;28;20057;-58
2023/10/07 00:28:49;;;;;;;7.72;3.50;;;;;;;;;;5033340;28;20064;-58
2023/10/07 00:31:22;;;;;;;6.15;3.30;;;;;;;;;;5033198;28;20042;-59
2023/10/07 00:33:52;;;;;;;9.07;8.07;;;;;;;;;;5032588;28;20042;-60
2023/10/07 00:36:41;;;;;;;7.68;4.43;;;;;;;;;;5033237;28;20026;-59
2023/10/07 00:39:07;;;;;;;6.03;3.33;;;;;;;;;;5032759;28;20029;-59
2023/10/07 00:41:45;;;;;;;6.72;3.10;;;;;;;;;;5032532;28;20029;-59
2023/10/07 00:46:49;;;;;;;7.63;3.78;;;;;;;;;;5032860;28;20021;-60
2023/10/07 00:49:22;;;;;;;6.60;2.70;;;;;;;;;;5032616;28;20013;-59
2023/10/07 00:51:49;;;;;;;6.40;3.33;;;;;;;;;;5032895;28;20026;-59
2023/10/07 00:54:18;;;;;;;6.47;3.45;;;;;;;;;;5032818;28;20017;-60
2023/10/07 00:56:54;;;;;;;9.35;3.70;;;;;;;;;;5032320;28;20469;-60
2023/10/07 00:59:19;;;;;;;6.93;4.60;;;;;;;;;;5032029;28;20425;-60
2023/10/07 01:01:47;;;;;;;8.03;3.50;;;;;;;;;;5032449;28;20105;-58
2023/10/07 01:04:16;;;;;;;6.55;3.22;;;;;;;;;;5032399;28;20490;-60
2023/10/07 01:06:45;;;;;;;62.55;57.05;;;;;;;;;;5032107;28;20028;-60
2023/10/07 01:09:11;;;;;;;8.18;4.22;;;;;;;;;;5032290;28;20021;-59
2023/10/07 01:11:40;;;;;;;7.03;2.88;;;;;;;;;;5032023;28;20033;-60
2023/10/07 01:14:05;;;;;;;8.02;3.97;;;;;;;;;;5032466;28;20033;-59
2023/10/07 01:16:40;;;;;;;5.85;2.92;;;;;;;;;;5032224;28;20029;-58
2023/10/07 01:21:46;;;;;;;8.93;3.33;;;;;;;;;;5032287;28;20018;-61
2023/10/07 01:24:13;;;;;;;6.00;3.92;;;;;;;;;;5032277;28;20063;-59
2023/10/07 01:26:39;;;;;;;6.63;5.65;;;;;;;;;;5032049;28;20025;-60
2023/10/07 01:29:15;;;;;;;28.40;26.05;;;;;;;;;;5031809;28;20020;-58
2023/10/07 01:31:43;;;;;;;7.35;3.20;;;;;;;;;;5031976;28;20013;-58
2023/10/07 01:34:13;;;;;;;6.57;2.92;;;;;;;;;;5032117;28;20036;-60
2023/10/07 01:36:41;;;;;;;6.20;2.95;;;;;;;;;;5032019;28;20025;-60
2023/10/07 01:39:07;;;;;;;8.00;3.08;;;;;;;;;;5031553;28;20404;-60
2023/10/07 01:41:37;;;;;;;7.13;3.88;;;;;;;;;;5031671;28;20020;-59
2023/10/07 01:44:06;;;;;;;31.38;29.30;;;;;;;;;;5031586;28;20084;-58
2023/10/07 01:46:31;;;;;;;7.88;6.88;;;;;;;;;;5031900;28;20036;-62
2023/10/07 01:49:00;;;;;;;17.20;15.77;;;;;;;;;;5031361;28;20010;-60
2023/10/07 01:51:27;;;;;;;7.55;3.17;;;;;;;;;;5031329;28;20029;-58
2023/10/07 01:53:56;;;;;;;6.68;4.07;;;;;;;;;;5031451;28;20381;-60
2023/10/07 01:56:21;;;;;;;8.45;5.68;;;;;;;;;;5031344;28;20026;-59
2023/10/07 01:58:47;;;;;;;9.88;8.40;;;;;;;;;;5031525;28;20389;-60
2023/10/07 02:01:16;;;;;;;7.05;3.67;;;;;;;;;;5031021;28;20044;-60
2023/10/07 02:03:43;;;;;;;22.08;20.27;;;;;;;;;;5031543;28;20044;-59
2023/10/07 02:06:08;;;;;;;6.93;3.83;;;;;;;;;;5031892;28;20035;-59
2023/10/07 02:08:37;;;;;;;20.67;18.95;;;;;;;;;;5031520;28;20033;-59
2023/10/07 02:11:05;;;;;;;34.17;31.63;;;;;;;;;;5030705;28;20075;-59
2023/10/07 02:13:30;;;;;;;5.88;3.60;;;;;;;;;;5030648;28;20029;-61
2023/10/07 02:15:56;;;;;;;6.30;4.77;;;;;;;;;;5032168;28;20033;-60
2023/10/07 02:18:22;;;;;;;6.30;3.43;;;;;;;;;;5031210;28;20020;-60
2023/10/07 02:20:52;;;;;;;;;;;;;;;;;;5031802;28;20446;-60
2023/10/07 02:26:20;;;;;;;7.38;4.10;;;;;;;;;;5032231;28;20075;-60
2023/10/07 02:28:50;;;;;;;7.32;3.28;;;;;;;;;;5031594;28;20432;-60
2023/10/07 02:31:19;;;;;;;6.63;4.00;;;;;;;;;;5031968;28;20495;-60
2023/10/07 02:33:45;;;;;;;7.53;4.32;;;;;;;;;;5030730;28;20029;-60
2023/10/07 02:36:13;;;;;;;6.28;3.22;;;;;;;;;;5033196;28;20017;-59
2023/10/07 02:38:41;;;;;;;6.93;3.22;;;;;;;;;;5030978;28;20485;-60
2023/10/07 02:41:16;;;;;;;8.18;3.95;;;;;;;;;;5030579;28;20361;-59
2023/10/07 02:43:43;;;;;;;6.72;4.50;;;;;;;;;;5030896;28;20431;-61
2023/10/07 02:46:08;;;;;;;7.72;4.72;;;;;;;;;;5031042;28;20346;-59
2023/10/07 02:48:38;;;;;;;24.70;22.88;;;;;;;;;;5034026;28;20016;-61
2023/10/07 02:51:08;;;;;;;6.97;4.93;;;;;;;;;;5030273;28;20013;-58
2023/10/07 02:53:35;;;;;;;8.60;4.05;;;;;;;;;;5030845;28;20385;-60
2023/10/07 02:56:03;;;;;;;20.65;19.05;;;;;;;;;;5031151;28;20024;-60
2023/10/07 02:58:36;;;;;;;9.85;3.80;;;;;;;;;;5034889;28;20401;-61
2023/10/07 03:01:11;;;;;;;9.57;8.65;;;;;;;;;;5034214;28;20608;-58
2023/10/07 03:03:41;;;;;;;6.25;4.90;;;;;;;;;;5035031;28;20025;-60
2023/10/07 03:06:07;;;;;;;7.43;3.42;;;;;;;;;;5035026;28;20040;-58
2023/10/07 03:08:47;;;;;;;10.27;8.75;;;;;;;;;;5034873;28;20014;-60
2023/10/07 03:11:20;;;;;;;5.65;3.63;;;;;;;;;;5034999;28;20014;-60
2023/10/07 03:13:45;;;;;;;6.75;3.75;;;;;;;;;;5036792;28;20021;-59
2023/10/07 03:18:55;;;;;;;8.60;5.65;;;;;;;;;;5039266;28;20493;-61
2023/10/07 03:21:21;;;;;;;12.82;11.52;;;;;;;;;;5034960;28;20036;-58
2023/10/07 03:23:53;;;;;;;8.27;4.50;;;;;;;;;;5035172;28;20041;-60
2023/10/07 03:26:20;;;;;;;14.98;13.05;;;;;;;;;;5034834;28;20473;-60
2023/10/07 03:28:53;;;;;;;8.57;7.30;;;;;;;;;;5034363;28;20037;-60
2023/10/07 03:31:20;;;;;;;35.30;32.35;;;;;;;;;;5034167;28;20049;-60
2023/10/07 03:33:53;;;;;;;6.55;3.55;;;;;;;;;;5034300;28;20033;-59
2023/10/07 03:38:50;;;;;;;8.25;6.45;;;;;;;;;;5033935;28;20096;-59
2023/10/07 03:41:21;;;;;;;6.85;5.32;;;;;;;;;;5033975;28;20025;-60
2023/10/07 03:43:46;;;;;;;7.78;6.72;;;;;;;;;;5034461;28;20470;-59
2023/10/07 03:46:11;;;;;;;57.87;52.80;;;;;;;;;;5034197;28;20021;-60
2023/10/07 03:48:39;;;;;;;8.23;4.00;;;;;;;;;;5033998;28;20042;-59
2023/10/07 03:51:12;;;;;;;9.73;8.55;;;;;;;;;;5033193;28;20640;-60
2023/10/07 03:53:47;;;;;;;16.10;14.68;;;;;;;;;;5034151;28;20144;-60
2023/10/07 03:56:12;;;;;;;8.25;3.85;;;;;;;;;;5033962;28;20489;-60
2023/10/07 03:58:38;;;;;;;7.00;4.40;;;;;;;;;;5033663;28;20063;-60
2023/10/07 04:01:19;;;;;;;8.25;4.30;;;;;;;;;;5033385;28;20101;-61
2023/10/07 04:03:46;;;;;;;9.43;3.60;;;;;;;;;;5034028;28;20025;-60
2023/10/07 04:06:21;;;;;;;13.63;12.43;;;;;;;;;;5034211;28;20026;-58
2023/10/07 04:08:53;;;;;;;8.60;4.75;;;;;;;;;;5032684;28;20064;-59
2023/10/07 04:11:19;;;;;;;7.07;4.07;;;;;;;;;;5033146;28;20213;-60
2023/10/07 04:13:45;;;;;;;10.32;9.32;;;;;;;;;;5033236;28;20424;-58
2023/10/07 04:16:33;;;;;;;16.80;15.30;;;;;;;;;;5033702;28;20096;-59
2023/10/07 04:19:30;;;;;;;7.47;4.72;;;;;;;;;;5033250;28;20037;-59
2023/10/07 04:21:55;;;;;;;39.90;35.70;;;;;;;;;;5033242;28;20017;-59
2023/10/07 04:24:23;;;;;;;7.57;3.60;;;;;;;;;;5033264;28;20024;-61
2023/10/07 04:26:54;;;;;;;7.22;3.92;;;;;;;;;;5033297;28;20025;-58
2023/10/07 04:29:21;;;;;;;7.10;4.68;;;;;;;;;;5032437;28;20013;-58
2023/10/07 04:31:47;;;;;;;7.57;5.68;;;;;;;;;;5032828;28;20405;-60
2023/10/07 04:34:15;;;;;;;9.20;6.00;;;;;;;;;;5033151;28;20021;-60
2023/10/07 04:39:28;;;;;;;8.05;6.22;;;;;;;;;;5032294;28;20040;-58
2023/10/07 04:41:58;;;;;;;14.65;13.20;;;;;;;;;;5033053;28;20021;-58
2023/10/07 04:47:20;;;;;;;7.93;5.18;;;;;;;;;;5032769;28;20017;-60
2023/10/07 04:49:55;;;;;;;21.63;19.67;;;;;;;;;;5032386;28;20082;-59
2023/10/07 04:52:24;;;;;;;6.93;3.00;;;;;;;;;;5032921;28;20022;-59
2023/10/07 04:54:51;;;;;;;13.00;11.68;;;;;;;;;;5033097;28;20024;-59
2023/10/07 04:57:39;;;;;;;11.55;5.97;;;;;;;;;;5032805;28;20045;-59
2023/10/07 05:00:07;;;;;;;8.10;4.55;;;;;;;;;;5031724;28;20367;-59
2023/10/07 05:02:32;;;;;;;8.05;4.15;;;;;;;;;;5032849;28;20032;-58
2023/10/07 05:05:00;;;;;;;7.47;6.30;;;;;;;;;;5031567;28;20412;-58
2023/10/07 05:07:26;;;;;;;8.63;4.97;;;;;;;;;;5032290;28;20034;-58
2023/10/07 05:09:52;;;;;;;18.92;17.33;;;;;;;;;;5032026;28;20033;-58
2023/10/07 05:12:19;;;;;;;11.68;8.75;;;;;;;;;;5032344;28;20421;-59
2023/10/07 05:14:45;;;;;;;8.32;4.50;;;;;;;;;;5032447;28;20108;-59
2023/10/07 05:17:11;;;;;;;14.60;7.17;;;;;;;;;;5032245;28;20105;-59
2023/10/07 05:19:37;;;;;;;13.63;6.03;;;;;;;;;;5031178;28;20034;-60
2023/10/07 05:22:14;;;;;;;10.23;5.95;;;;;;;;;;5032112;28;20477;-60
2023/10/07 05:24:41;;;;;;;11.45;6.40;;;;;;;;;;5032160;28;20029;-59
2023/10/07 05:27:06;;;;;;;11.70;5.93;;;;;;;;;;5032350;28;20108;-56
2023/10/07 05:29:31;;;;;;;13.10;7.73;;;;;;;;;;5031481;28;20029;-59
2023/10/07 05:31:57;;;;;;;16.90;8.65;;;;;;;;;;5032011;28;20434;-59
2023/10/07 05:34:22;;;;;;;17.45;11.15;;;;;;;;;;5031740;28;20530;-59
2023/10/07 05:36:50;;;;;;;18.88;12.00;;;;;;;;;;5032273;28;20090;-60
2023/10/07 05:39:17;;;;;;;17.15;8.40;;;;;;;;;;5031001;28;20032;-59
2023/10/07 05:41:44;;;;;;;19.77;15.68;;;;;;;;;;5031910;28;20014;-60
2023/10/07 05:44:09;;;;;;;16.00;8.45;;;;;;;;;;5030505;28;20021;-59
2023/10/07 05:46:35;;;;;;;14.47;10.40;;;;;;;;;;5031822;28;20109;-60
2023/10/07 05:49:00;;;;;;;11.25;9.13;;;;;;;;;;5031392;28;20397;-58
2023/10/07 05:51:25;;;;;;;8.63;6.93;;;;;;;;;;5031235;28;20036;-59
2023/10/07 05:53:51;;;;;;;22.85;20.63;;;;;;;;;;5031578;28;20101;-59
2023/10/07 05:56:17;;;;;;;43.78;39.22;;;;;;;;;;5032093;28;20031;-58
2023/10/07 05:58:44;;;;;;;9.45;8.30;;;;;;;;;;5031595;28;20014;-59
2023/10/07 06:01:11;;;;;;;8.48;5.78;;;;;;;;;;5031707;28;20113;-60
2023/10/07 06:03:37;;;;;;;10.43;7.10;;;;;;;;;;5032141;28;20029;-58
2023/10/07 06:06:04;;;;;;;9.00;4.65;;;;;;;;;;5032253;28;20021;-60
2023/10/07 06:08:29;;;;;;;8.55;7.28;;;;;;;;;;5032368;28;20036;-59
2023/10/07 06:10:59;;;;;;;15.32;13.93;;;;;;;;;;5031416;28;20057;-59
2023/10/07 06:13:26;;;;;;;11.68;10.23;;;;;;;;;;5032244;28;20013;-59
2023/10/07 06:15:55;;;;;;;10.43;8.68;;;;;;;;;;5034998;28;20397;-58
2023/10/07 06:18:21;;;;;;;9.45;8.30;;;;;;;;;;5032419;28;20031;-58
2023/10/07 06:20:46;;;;;;;11.27;9.25;;;;;;;;;;5031354;28;20409;-59
2023/10/07 06:23:15;;;;;;;11.73;6.97;;;;;;;;;;5032021;28;20021;-60
2023/10/07 06:25:49;;;;;;;9.35;7.40;;;;;;;;;;5031465;28;20416;-58
2023/10/07 06:30:56;;;;;;;;;;;;;;;;;;5031052;28;20493;-59
2023/10/07 06:33:23;;;;;;;9.13;3.95;;;;;;;;;;5031253;28;19909;-59
2023/10/07 06:35:51;;;;;;;;;;;;;;;;;;5031953;28;20021;-59
2023/10/07 06:38:19;;;;;;;7.97;3.38;;;;;;;;;;5031508;28;19936;-59
2023/10/07 06:40:45;;;;;;;9.38;5.90;;;;;;;;;;5030548;28;20017;-59
2023/10/07 06:43:14;;;;;;;21.63;19.58;;;;;;;;;;5031154;28;20037;-59
2023/10/07 06:45:44;;;;;;;7.50;3.88;;;;;;;;;;5031499;28;20025;-60
2023/10/07 06:48:11;;;;;;;8.93;5.65;;;;;;;;;;5030970;28;20021;-59
2023/10/07 06:50:41;;;;;;;11.43;10.32;;;;;;;;;;5030620;28;20026;-59
2023/10/07 06:53:11;;;;;;;138.32;124.20;;;;;;;;;;5030902;28;20540;-57
2023/10/07 06:55:41;;;;;;;11.02;9.35;;;;;;;;;;5030710;28;20539;-58
2023/10/07 06:58:06;;;;;;;7.13;3.70;;;;;;;;;;5029429;28;20020;-60
2023/10/07 07:00:46;;;;;;;10.23;9.20;;;;;;;;;;5030122;28;20029;-60
2023/10/07 07:03:12;;;;;;;6.53;3.78;;;;;;;;;;5030858;28;20452;-60
2023/10/07 07:05:40;;;;;;;6.60;5.80;;;;;;;;;;5030862;28;20119;-59
2023/10/07 07:08:09;;;;;;;9.52;7.10;;;;;;;;;;5030452;28;20100;-59
2023/10/07 07:10:34;;;;;;;38.10;34.53;;;;;;;;;;5030223;28;20035;-60
2023/10/07 07:13:04;;;;;;;31.20;27.43;;;;;;;;;;5030686;28;20413;-59
2023/10/07 07:15:36;;;;;;;18.08;16.55;;;;;;;;;;5031238;28;20017;-58
2023/10/07 07:23:21;;;;;;;88.18;78.72;;;;;;;;;;5030774;28;20556;-59
2023/10/07 07:26:06;;;;;;;61.15;56.22;;;;;;;;;;5030435;28;20052;-60
2023/10/07 07:28:31;;;;;;;11.48;10.00;;;;;;;;;;5030660;28;20021;-60
2023/10/07 07:31:00;;;;;;;12.70;11.40;;;;;;;;;;5030168;28;20385;-59
2023/10/07 07:33:29;;;;;;;8.02;4.93;;;;;;;;;;5030470;28;20018;-58
2023/10/07 07:35:56;;;;;;;12.35;11.18;;;;;;;;;;5030406;28;20022;-59
2023/10/07 07:38:43;;;;;;;39.03;34.95;;;;;;;;;;5030499;28;20048;-59
2023/10/07 07:41:26;;;;;;;10.30;9.18;;;;;;;;;;5029793;28;20022;-59
2023/10/07 07:43:51;;;;;;;19.65;17.98;;;;;;;;;;5033441;28;20495;-59
2023/10/07 07:48:43;;;;;;;52.17;47.50;;;;;;;;;;5033754;28;20112;-58
2023/10/07 07:51:09;;;;;;;34.90;32.03;;;;;;;;;;5033770;28;20036;-59
2023/10/07 07:53:35;;;;;;;18.30;16.63;;;;;;;;;;5033908;28;20013;-60
2023/10/07 07:56:00;;;;;;;23.13;21.07;;;;;;;;;;5033697;28;20036;-58
2023/10/07 07:58:25;;;;;;;10.43;9.40;;;;;;;;;;5035614;28;20021;-60
2023/10/07 08:00:58;;;;;;;9.85;8.45;;;;;;;;;;5033188;28;20800;-59
2023/10/07 08:03:24;;;;;;;10.93;9.95;;;;;;;;;;5033819;28;20096;-59
2023/10/07 08:05:49;;;;;;;9.85;7.22;;;;;;;;;;5033746;28;20099;-60
2023/10/07 08:08:24;;;;;;;17.07;15.63;;;;;;;;;;5033705;28;20013;-59
2023/10/07 08:10:54;;;;;;;12.30;11.27;;;;;;;;;;5033043;28;20062;-60
2023/10/07 08:13:29;;;;;;;45.60;42.42;;;;;;;;;;5033655;28;20025;-59
2023/10/07 08:15:54;;;;;;;71.85;65.68;;;;;;;;;;5033667;28;20025;-60
2023/10/07 08:18:22;;;;;;;104.80;95.15;;;;;;;;;;5033404;28;20027;-59
2023/10/07 08:20:48;;;;;;;10.10;5.70;;;;;;;;;;5032973;28;20029;-59
2023/10/07 08:23:24;;;;;;;87.93;79.72;;;;;;;;;;5033217;28;20031;-60
2023/10/07 08:25:55;;;;;;;14.88;13.40;;;;;;;;;;5032609;28;20022;-59
2023/10/07 08:28:41;;;;;;;49.75;45.22;;;;;;;;;;5033769;28;20048;-59
2023/10/07 08:31:13;;;;;;;10.73;9.68;;;;;;;;;;5032749;28;20031;-60
2023/10/07 08:33:39;;;;;;;10.35;9.25;;;;;;;;;;5033461;28;20029;-60
2023/10/07 08:36:07;;;;;;;30.52;28.48;;;;;;;;;;5033379;28;20021;-59
2023/10/07 08:38:40;;;;;;;16.33;14.90;;;;;;;;;;5033184;28;20524;-60
2023/10/07 08:41:07;;;;;;;17.38;15.98;;;;;;;;;;5032591;28;20014;-59
2023/10/07 08:43:38;;;;;;;22.88;21.30;;;;;;;;;;5033291;28;20095;-60
2023/10/07 08:46:08;;;;;;;26.20;24.40;;;;;;;;;;5033025;28;20021;-60
2023/10/07 08:48:38;;;;;;;23.17;21.65;;;;;;;;;;5032965;28;20036;-59
2023/10/07 08:51:10;;;;;;;33.10;30.67;;;;;;;;;;5032166;28;20045;-60
2023/10/07 08:53:36;;;;;;;;;;;;;;;;;;5032988;28;20026;-58
2023/10/07 08:56:01;;;;;;;21.25;19.48;;;;;;;;;;5032471;28;19905;-58
2023/10/07 08:58:29;;;;;;;12.47;11.27;;;;;;;;;;5032730;28;20049;-60
2023/10/07 09:00:56;;;;;;;77.43;70.38;;;;;;;;;;5031959;28;20430;-59
2023/10/07 09:03:26;;;;;;;8.15;7.32;;;;;;;;;;5032743;28;20021;-60
2023/10/07 09:05:51;;;;;;;20.73;19.20;;;;;;;;;;5033662;28;20033;-58
2023/10/07 09:08:16;;;;;;;10.97;9.90;;;;;;;;;;5033136;28;20021;-59
2023/10/07 09:10:45;;;;;;;10.43;9.40;;;;;;;;;;5035673;28;20473;-60
2023/10/07 09:13:19;;;;;;;261.95;238.05;;;;;;;;;;5033163;28;20079;-59
2023/10/07 09:15:46;;;;;;;9.48;6.95;;;;;;;;;;5032799;28;20048;-60
2023/10/07 09:18:17;;;;;;;8.25;6.03;;;;;;;;;;5032152;28;20029;-60
2023/10/07 09:20:45;;;;;;;10.52;9.45;;;;;;;;;;5031467;28;20128;-59
2023/10/07 09:23:19;;;;;;;8.88;6.82;;;;;;;;;;5032156;28;20057;-58
2023/10/07 09:25:51;;;;;;;10.43;7.78;;;;;;;;;;5032047;28;20010;-60
2023/10/07 09:28:19;;;;;;;;;;;;;;;;;;5032780;28;20020;-60
2023/10/07 09:33:13;;;;;;;18.90;17.45;;;;;;;;;;5032099;28;20473;-60
2023/10/07 09:35:42;;;;;;;11.82;10.18;;;;;;;;;;5032254;28;20022;-59
2023/10/07 09:38:12;;;;;;;14.68;13.43;;;;;;;;;;5032285;28;20026;-59
2023/10/07 09:41:11;;;;;;;21.40;19.67;;;;;;;;;;5031526;28;20105;-60
2023/10/07 09:43:37;;;;;;;13.15;11.98;;;;;;;;;;5031647;28;20079;-59
2023/10/07 09:46:03;;;;;;;82.90;76.70;;;;;;;;;;5031797;28;20026;-60
2023/10/07 09:48:30;;;;;;;13.77;12.63;;;;;;;;;;5031837;28;20021;-61
2023/10/07 09:50:57;;;;;;;50.88;46.95;;;;;;;;;;5029939;28;20021;-59
2023/10/07 09:53:30;;;;;;;16.05;14.65;;;;;;;;;;5031377;28;20025;-61
2023/10/07 09:56:21;;;;;;;24.88;23.10;;;;;;;;;;5031817;28;20022;-60
2023/10/07 09:59:16;;;;;;;11.43;10.30;;;;;;;;;;5031346;28;20385;-61
2023/10/07 10:02:06;;;;;;;9.15;8.23;;;;;;;;;;5031365;28;20010;-60
2023/10/07 10:04:36;;;;;;;20.17;18.63;;;;;;;;;;5031563;28;20009;-60
2023/10/07 10:07:07;;;;;;;16.85;15.45;;;;;;;;;;5031312;28;20021;-58
2023/10/07 10:09:45;;;;;;;12.50;11.35;;;;;;;;;;5030828;28;20036;-58
2023/10/07 10:12:27;;;;;;;32.63;29.58;;;;;;;;;;5031185;28;20033;-59
2023/10/07 10:15:50;;;;;;;28.40;26.52;;;;;;;;;;5031553;28;20075;-58
2023/10/07 10:17:53;;;;;;;13.40;12.30;;;;;;;;;;5031100;28;20156;-60
2023/10/07 10:20:27;;;;;;;9.30;7.72;;;;;;;;;;5030455;28;20068;-60
2023/10/07 10:22:53;;;;;;;22.73;20.85;;;;;;;;;;5031006;28;20045;-58
2023/10/07 10:25:36;;;;;;;10.63;9.25;;;;;;;;;;5031345;28;20245;-60
2023/10/07 10:28:02;;;;;;;12.63;11.52;;;;;;;;;;5031068;28;20041;-59
2023/10/07 10:30:28;;;;;;;;;;;;;;;;;;5031294;28;20104;-59
2023/10/07 10:32:54;;;;;;;10.38;9.40;;;;;;;;;;5030716;28;19932;-59
2023/10/07 10:35:26;;;;;;;9.32;6.13;;;;;;;;;;5031163;28;20018;-59
2023/10/07 10:37:57;;;;;;;36.50;33.97;;;;;;;;;;5031279;28;20052;-59
2023/10/07 10:40:23;;;;;;;14.80;13.48;;;;;;;;;;5030300;28;20449;-59
2023/10/07 10:42:48;;;;;;;33.38;30.77;;;;;;;;;;5032346;28;20064;-59
2023/10/07 10:45:20;;;;;;;176.93;161.45;;;;;;;;;;5033833;28;20100;-60
2023/10/07 10:47:47;;;;;;;13.07;11.90;;;;;;;;;;5031694;28;20507;-59
2023/10/07 10:50:16;;;;;;;27.83;25.80;;;;;;;;;;5031170;28;20021;-59
2023/10/07 10:52:42;;;;;;;16.42;15.02;;;;;;;;;;5030770;28;20017;-58
2023/10/07 10:55:08;;;;;;;11.65;10.48;;;;;;;;;;5031806;28;20086;-59
2023/10/07 10:57:38;;;;;;;14.85;13.60;;;;;;;;;;5029874;28;20543;-59
2023/10/07 11:00:11;;;;;;;18.75;17.20;;;;;;;;;;5030207;28;20071;-58
2023/10/07 11:02:41;;;;;;;12.85;11.63;;;;;;;;;;5030702;28;20032;-60
2023/10/07 11:05:08;;;;;;;8.07;7.25;;;;;;;;;;5030674;28;20021;-59
2023/10/07 11:07:34;;;;;;;17.50;15.93;;;;;;;;;;5030669;28;20061;-61
2023/10/07 11:09:59;;;;;;;18.05;16.73;;;;;;;;;;5030304;28;20410;-60
2023/10/07 11:12:27;;;;;;;10.93;9.77;;;;;;;;;;5029411;28;20478;-60
2023/10/07 11:15:00;;;;;;;15.82;14.48;;;;;;;;;;5030700;28;20093;-60
2023/10/07 11:17:25;;;;;;;11.35;10.32;;;;;;;;;;5031965;28;20389;-60
2023/10/07 11:19:51;;;;;;;91.47;84.00;;;;;;;;;;5032256;28;20037;-60
2023/10/07 11:22:20;;;;;;;22.80;20.73;;;;;;;;;;5034483;28;20212;-60
2023/10/07 11:24:50;;;;;;;13.32;12.23;;;;;;;;;;5034609;28;20492;-61
2023/10/07 11:27:15;;;;;;;10.85;9.23;;;;;;;;;;5034442;28;20068;-61
2023/10/07 11:29:40;;;;;;;12.48;11.32;;;;;;;;;;5034088;28;20381;-60
2023/10/07 11:32:06;;;;;;;10.87;9.80;;;;;;;;;;5034344;28;20029;-61
2023/10/07 11:34:36;;;;;;;9.35;7.28;;;;;;;;;;5034364;28;20033;-61
2023/10/07 11:37:06;;;;;;;15.35;14.05;;;;;;;;;;5032942;28;20026;-60
2023/10/07 11:39:35;;;;;;;19.45;17.90;;;;;;;;;;5033903;28;20021;-61
2023/10/07 11:42:01;;;;;;;12.07;10.98;;;;;;;;;;5034316;28;20558;-60
2023/10/07 11:44:26;;;;;;;9.20;6.95;;;;;;;;;;5034442;28;20030;-61
2023/10/07 11:46:52;;;;;;;88.00;80.75;;;;;;;;;;5033276;28;20037;-60
2023/10/07 11:49:17;;;;;;;20.40;18.87;;;;;;;;;;5032822;28;20151;-60
2023/10/07 11:51:43;;;;;;;13.13;12.03;;;;;;;;;;5034846;28;20402;-61
2023/10/07 11:54:09;;;;;;;12.48;11.40;;;;;;;;;;5034644;28;20428;-60
2023/10/07 11:56:34;;;;;;;16.05;14.85;;;;;;;;;;5034507;28;20017;-60
2023/10/07 11:58:59;;;;;;;13.87;12.77;;;;;;;;;;5033831;28;20112;-60
2023/10/07 12:01:24;;;;;;;8.50;7.67;;;;;;;;;;5034625;28;20024;-60
2023/10/07 12:03:49;;;;;;;17.23;15.90;;;;;;;;;;5035397;28;20021;-59
2023/10/07 12:06:15;;;;;;;24.05;22.30;;;;;;;;;;5035846;28;20063;-58
2023/10/07 12:08:40;;;;;;;74.65;69.40;;;;;;;;;;5035918;28;20067;-59
2023/10/07 12:11:07;;;;;;;23.23;21.77;;;;;;;;;;5034271;28;20072;-60
2023/10/07 12:13:33;;;;;;;140.30;128.18;;;;;;;;;;5034263;28;20472;-59
2023/10/07 12:16:00;;;;;;;38.85;36.38;;;;;;;;;;5033912;28;20029;-59
2023/10/07 12:18:25;;;;;;;18.95;17.42;;;;;;;;;;5033422;28;20029;-59
2023/10/07 12:20:53;;;;;;;29.38;27.48;;;;;;;;;;5033369;28;20021;-60
2023/10/07 12:23:18;;;;;;;23.95;22.38;;;;;;;;;;5033760;28;20018;-59
2023/10/07 12:25:44;;;;;;;158.30;144.33;;;;;;;;;;5033489;28;20014;-59
2023/10/07 12:28:09;;;;;;;62.13;56.67;;;;;;;;;;5031706;28;20444;-58
2023/10/07 12:30:35;;;;;;;16.83;15.53;;;;;;;;;;5032340;28;20021;-61
2023/10/07 12:33:00;;;;;;;71.97;66.55;;;;;;;;;;5032097;28;20064;-58
2023/10/07 12:35:28;;;;;;;14.38;13.18;;;;;;;;;;5033484;28;20106;-61
2023/10/07 12:37:55;;;;;;;16.98;15.45;;;;;;;;;;5033783;28;20026;-60
2023/10/07 12:40:20;;;;;;;260.90;234.25;;;;;;;;;;5031548;28;20025;-61
2023/10/07 12:42:49;;;;;;;13.73;12.53;;;;;;;;;;5033430;28;20147;-58
2023/10/07 12:45:14;;;;;;;9.18;8.05;;;;;;;;;;5033504;28;20017;-59
2023/10/07 12:47:42;;;;;;;14.95;13.90;;;;;;;;;;5033133;28;20044;-59
2023/10/07 12:50:20;;;;;;;20.67;18.92;;;;;;;;;;5032946;28;20525;-59
2023/10/07 12:52:45;;;;;;;;;;;;;;;;;;5032784;28;20014;-60
2023/10/07 12:55:12;;;;;;;13.07;11.98;;;;;;;;;;5033491;28;19996;-59
2023/10/07 12:57:40;;;;;;;10.15;9.23;;;;;;;;;;5033556;28;20446;-60
2023/10/07 13:00:18;;;;;;;9.02;7.65;;;;;;;;;;5033728;28;20420;-61
2023/10/07 13:02:44;;;;;;;12.07;11.02;;;;;;;;;;5033624;28;20013;-60
2023/10/07 13:05:10;;;;;;;9.10;8.10;;;;;;;;;;5033371;28;20025;-61
2023/10/07 13:07:42;;;;;;;9.35;7.35;;;;;;;;;;5032962;28;20040;-60
2023/10/07 13:10:11;;;;;;;14.80;13.57;;;;;;;;;;5032787;28;20018;-59
2023/10/07 13:12:36;;;;;;;17.38;15.90;;;;;;;;;;5031977;28;20030;-60
2023/10/07 13:15:01;;;;;;;98.32;88.75;;;;;;;;;;5032564;28;20397;-58
2023/10/07 13:17:27;;;;;;;12.03;9.80;;;;;;;;;;5033192;28;20028;-60
2023/10/07 13:19:52;;;;;;;12.47;11.33;;;;;;;;;;5032831;28;20025;-60
2023/10/07 13:22:18;;;;;;;30.80;28.80;;;;;;;;;;5035003;28;20029;-59
2023/10/07 13:24:46;;;;;;;12.95;11.93;;;;;;;;;;5033205;28;20021;-59
2023/10/07 13:27:14;;;;;;;12.05;11.13;;;;;;;;;;5036176;28;20030;-59
2023/10/07 13:29:40;;;;;;;79.07;73.60;;;;;;;;;;5033915;28;20045;-59
2023/10/07 13:32:06;;;;;;;13.07;11.90;;;;;;;;;;5032978;28;20045;-59
2023/10/07 13:34:38;;;;;;;17.17;15.93;;;;;;;;;;5031985;28;20021;-60
2023/10/07 13:37:06;;;;;;;13.05;11.95;;;;;;;;;;5032169;28;20022;-58
2023/10/07 13:39:31;;;;;;;13.38;12.23;;;;;;;;;;5031650;28;20017;-61
2023/10/07 13:41:56;;;;;;;14.90;13.67;;;;;;;;;;5031937;28;20123;-60
2023/10/07 13:44:22;;;;;;;17.10;15.70;;;;;;;;;;5031758;28;21191;-60
2023/10/07 13:46:48;;;;;;;;;;;;;;;;;;5032533;28;20022;-59
2023/10/07 13:49:16;;;;;;;8.07;6.00;;;;;;;;;;5031945;28;20414;-59
2023/10/07 13:51:43;;;;;;;130.68;117.78;;;;;;;;;;5031560;28;20159;-58
2023/10/07 13:54:38;;;;;;;13.50;12.10;;;;;;;;;;5031760;28;20021;-59
2023/10/07 13:57:09;;;;;;;117.90;107.28;;;;;;;;;;5031703;28;20037;-60
2023/10/07 13:59:36;;;;;;;45.75;42.42;;;;;;;;;;5031483;28;20087;-65
2023/10/07 14:02:01;;;;;;;14.02;12.82;;;;;;;;;;5031591;28;20097;-58
2023/10/07 14:04:26;;;;;;;25.77;24.07;;;;;;;;;;5031601;28;20497;-59
2023/10/07 14:07:00;;;;;;;11.80;10.73;;;;;;;;;;5032047;28;20037;-58
2023/10/07 14:09:25;;;;;;;51.03;47.95;;;;;;;;;;5031875;28;20357;-59
2023/10/07 14:11:56;;;;;;;235.67;213.73;;;;;;;;;;5031916;28;20098;-58
2023/10/07 14:14:22;;;;;;;51.35;47.33;;;;;;;;;;5031855;28;20022;-58
2023/10/07 14:16:47;;;;;;;16.83;15.55;;;;;;;;;;5031560;28;20033;-60
2023/10/07 14:19:13;;;;;;;10.80;9.90;;;;;;;;;;5031175;28;20029;-60
2023/10/07 14:21:39;;;;;;;90.72;83.55;;;;;;;;;;5031266;28;20077;-59
2023/10/07 14:24:04;;;;;;;66.17;60.07;;;;;;;;;;5030931;28;20096;-61
2023/10/07 14:26:33;;;;;;;23.40;21.88;;;;;;;;;;5031117;28;20459;-61
2023/10/07 14:29:02;;;;;;;15.57;14.35;;;;;;;;;;5031206;28;20022;-60
2023/10/07 14:31:27;;;;;;;16.00;14.60;;;;;;;;;;5030380;28;20517;-61
2023/10/07 14:33:54;;;;;;;20.55;19.15;;;;;;;;;;5030728;28;20117;-61
2023/10/07 14:36:21;;;;;;;16.60;14.98;;;;;;;;;;5030804;28;20028;-60
2023/10/07 14:38:48;;;;;;;25.33;23.38;;;;;;;;;;5031097;28;20478;-60
2023/10/07 14:41:13;;;;;;;39.35;36.20;;;;;;;;;;5030447;28;20140;-59
2023/10/07 14:43:39;;;;;;;23.13;21.27;;;;;;;;;;5029712;28;20458;-58
2023/10/07 14:46:04;;;;;;;18.20;16.80;;;;;;;;;;5031034;28;20029;-60
2023/10/07 14:48:30;;;;;;;16.70;15.33;;;;;;;;;;5031353;28;20104;-59
2023/10/07 14:50:56;;;;;;;88.25;80.15;;;;;;;;;;5030883;28;20022;-59
2023/10/07 14:53:21;;;;;;;38.50;35.50;;;;;;;;;;5030663;28;20021;-61
2023/10/07 14:55:46;;;;;;;52.97;49.13;;;;;;;;;;5032696;28;20021;-59
2023/10/07 14:58:15;;;;;;;17.95;16.60;;;;;;;;;;5032811;28;20037;-60
2023/10/07 15:00:41;;;;;;;14.35;13.15;;;;;;;;;;5031595;28;20079;-60
2023/10/07 15:03:06;;;;;;;15.93;14.52;;;;;;;;;;5033067;28;20392;-59
2023/10/07 15:05:33;;;;;;;14.07;12.82;;;;;;;;;;5035360;28;20026;-59
2023/10/07 15:07:58;;;;;;;10.25;9.02;;;;;;;;;;5030933;28;20116;-60
2023/10/07 15:10:28;;;;;;;28.30;26.10;;;;;;;;;;5030355;28;20105;-60
2023/10/07 15:12:54;;;;;;;24.27;22.40;;;;;;;;;;5031187;28;20013;-59